sensor_id;sensor_type;location;lat;lon;timestamp;P1;durP1;ratioP1;P2;durP2;ratioP2
21472;SDS011;10898;48.072;11.682;2023-04-03T00:00:58;13.85;;;11.43;;
21472;SDS011;10898;48.072;11.682;2023-04-03T00:03:00;14.68;;;11.50;;
21472;SDS011;10898;48.072;11.682;2023-04-03T00:05:02;16.05;;;12.00;;
21472;SDS011;10898;48.072;11.682;2023-04-03T00:07:05;13.55;;;11.30;;
21472;SDS011;10898;48.072;11.682;2023-04-03T00:09:07;14.98;;;11.90;;
21472;SDS011;10898;48.072;11.682;2023-04-03T00:11:10;15.00;;;11.43;;
21472;SDS011;10898;48.072;11.682;2023-04-03T00:13:13;16.73;;;11.35;;
21472;SDS011;10898;48.072;11.682;2023-04-03T00:17:17;16.65;;;12.05;;
21472;SDS011;10898;48.072;11.682;2023-04-03T00:19:19;13.23;;;10.63;;
21472;SDS011;10898;48.072;11.682;2023-04-03T00:21:22;13.70;;;11.35;;
21472;SDS011;10898;48.072;11.682;2023-04-03T00:23:24;14.05;;;11.52;;
21472;SDS011;10898;48.072;11.682;2023-04-03T00:25:26;15.70;;;12.07;;
21472;SDS011;10898;48.072;11.682;2023-04-03T00:27:28;12.57;;;10.77;;
21472;SDS011;10898;48.072;11.682;2023-04-03T00:29:30;15.48;;;12.15;;
21472;SDS011;10898;48.072;11.682;2023-04-03T00:31:32;13.65;;;11.13;;
21472;SDS011;10898;48.072;11.682;2023-04-03T00:33:35;15.85;;;11.60;;
21472;SDS011;10898;48.072;11.682;2023-04-03T00:35:37;14.25;;;11.02;;
21472;SDS011;10898;48.072;11.682;2023-04-03T00:37:39;13.43;;;11.05;;
21472;SDS011;10898;48.072;11.682;2023-04-03T00:39:41;13.93;;;11.18;;
21472;SDS011;10898;48.072;11.682;2023-04-03T00:41:44;17.25;;;11.55;;
21472;SDS011;10898;48.072;11.682;2023-04-03T00:43:46;13.13;;;10.63;;
21472;SDS011;10898;48.072;11.682;2023-04-03T00:45:49;15.75;;;11.00;;
21472;SDS011;10898;48.072;11.682;2023-04-03T00:47:52;13.43;;;10.75;;
21472;SDS011;10898;48.072;11.682;2023-04-03T00:49:54;13.45;;;10.73;;
21472;SDS011;10898;48.072;11.682;2023-04-03T00:53:59;13.55;;;10.65;;
21472;SDS011;10898;48.072;11.682;2023-04-03T00:56:05;12.25;;;10.50;;
21472;SDS011;10898;48.072;11.682;2023-04-03T00:58:07;12.57;;;10.68;;
21472;SDS011;10898;48.072;11.682;2023-04-03T01:00:11;13.48;;;11.70;;
21472;SDS011;10898;48.072;11.682;2023-04-03T01:02:14;14.00;;;11.85;;
21472;SDS011;10898;48.072;11.682;2023-04-03T01:06:38;15.00;;;11.25;;
21472;SDS011;10898;48.072;11.682;2023-04-03T01:08:40;14.40;;;11.02;;
21472;SDS011;10898;48.072;11.682;2023-04-03T01:10:43;14.95;;;10.65;;
21472;SDS011;10898;48.072;11.682;2023-04-03T01:12:48;13.32;;;10.90;;
21472;SDS011;10898;48.072;11.682;2023-04-03T01:14:52;13.15;;;11.63;;
21472;SDS011;10898;48.072;11.682;2023-04-03T01:16:54;12.63;;;10.75;;
21472;SDS011;10898;48.072;11.682;2023-04-03T01:18:57;12.25;;;10.43;;
21472;SDS011;10898;48.072;11.682;2023-04-03T01:25:12;13.45;;;10.98;;
21472;SDS011;10898;48.072;11.682;2023-04-03T01:27:15;14.10;;;10.10;;
21472;SDS011;10898;48.072;11.682;2023-04-03T01:29:18;13.20;;;10.60;;
21472;SDS011;10898;48.072;11.682;2023-04-03T01:33:38;15.07;;;11.20;;
21472;SDS011;10898;48.072;11.682;2023-04-03T01:35:40;14.18;;;10.73;;
21472;SDS011;10898;48.072;11.682;2023-04-03T01:37:42;14.50;;;10.85;;
21472;SDS011;10898;48.072;11.682;2023-04-03T01:39:44;13.48;;;10.43;;
21472;SDS011;10898;48.072;11.682;2023-04-03T01:41:47;15.05;;;10.85;;
21472;SDS011;10898;48.072;11.682;2023-04-03T01:43:49;13.48;;;10.93;;
21472;SDS011;10898;48.072;11.682;2023-04-03T01:45:51;11.98;;;10.75;;
21472;SDS011;10898;48.072;11.682;2023-04-03T01:47:55;13.82;;;10.82;;
21472;SDS011;10898;48.072;11.682;2023-04-03T01:49:58;12.60;;;10.27;;
21472;SDS011;10898;48.072;11.682;2023-04-03T01:52:00;15.05;;;11.02;;
21472;SDS011;10898;48.072;11.682;2023-04-03T01:54:02;13.38;;;10.77;;
21472;SDS011;10898;48.072;11.682;2023-04-03T01:58:07;14.15;;;10.57;;
21472;SDS011;10898;48.072;11.682;2023-04-03T02:00:09;12.95;;;11.10;;
21472;SDS011;10898;48.072;11.682;2023-04-03T02:02:11;16.00;;;11.48;;
21472;SDS011;10898;48.072;11.682;2023-04-03T02:04:15;16.92;;;11.45;;
21472;SDS011;10898;48.072;11.682;2023-04-03T02:06:17;14.18;;;11.27;;
21472;SDS011;10898;48.072;11.682;2023-04-03T02:08:20;14.95;;;12.23;;
21472;SDS011;10898;48.072;11.682;2023-04-03T02:10:22;15.68;;;11.55;;
21472;SDS011;10898;48.072;11.682;2023-04-03T02:12:24;14.07;;;11.20;;
21472;SDS011;10898;48.072;11.682;2023-04-03T02:14:26;14.65;;;11.70;;
21472;SDS011;10898;48.072;11.682;2023-04-03T02:16:28;14.63;;;12.20;;
21472;SDS011;10898;48.072;11.682;2023-04-03T02:18:31;14.55;;;11.10;;
21472;SDS011;10898;48.072;11.682;2023-04-03T02:20:34;13.27;;;10.88;;
21472;SDS011;10898;48.072;11.682;2023-04-03T02:24:38;13.52;;;10.57;;
21472;SDS011;10898;48.072;11.682;2023-04-03T02:26:41;13.38;;;10.80;;
21472;SDS011;10898;48.072;11.682;2023-04-03T02:28:43;14.07;;;11.20;;
21472;SDS011;10898;48.072;11.682;2023-04-03T02:30:45;15.48;;;10.85;;
21472;SDS011;10898;48.072;11.682;2023-04-03T02:32:48;19.38;;;11.40;;
21472;SDS011;10898;48.072;11.682;2023-04-03T02:34:50;14.68;;;11.25;;
21472;SDS011;10898;48.072;11.682;2023-04-03T02:36:52;15.15;;;11.52;;
21472;SDS011;10898;48.072;11.682;2023-04-03T02:38:55;19.35;;;11.73;;
21472;SDS011;10898;48.072;11.682;2023-04-03T02:41:01;12.90;;;10.30;;
21472;SDS011;10898;48.072;11.682;2023-04-03T02:43:03;12.18;;;10.57;;
21472;SDS011;10898;48.072;11.682;2023-04-03T02:45:05;12.52;;;10.85;;
21472;SDS011;10898;48.072;11.682;2023-04-03T02:47:08;12.88;;;10.95;;
21472;SDS011;10898;48.072;11.682;2023-04-03T02:49:10;12.45;;;10.60;;
21472;SDS011;10898;48.072;11.682;2023-04-03T02:51:12;14.00;;;10.18;;
21472;SDS011;10898;48.072;11.682;2023-04-03T02:53:14;14.20;;;10.75;;
21472;SDS011;10898;48.072;11.682;2023-04-03T02:55:16;11.77;;;9.98;;
21472;SDS011;10898;48.072;11.682;2023-04-03T02:57:18;13.45;;;10.32;;
21472;SDS011;10898;48.072;11.682;2023-04-03T02:59:21;14.85;;;11.77;;
21472;SDS011;10898;48.072;11.682;2023-04-03T03:01:23;13.93;;;9.88;;
21472;SDS011;10898;48.072;11.682;2023-04-03T03:03:25;15.93;;;10.60;;
21472;SDS011;10898;48.072;11.682;2023-04-03T03:05:28;12.50;;;10.85;;
21472;SDS011;10898;48.072;11.682;2023-04-03T03:07:31;12.90;;;10.07;;
21472;SDS011;10898;48.072;11.682;2023-04-03T03:09:33;13.80;;;11.18;;
21472;SDS011;10898;48.072;11.682;2023-04-03T03:11:35;12.93;;;10.10;;
21472;SDS011;10898;48.072;11.682;2023-04-03T03:13:37;14.38;;;9.30;;
21472;SDS011;10898;48.072;11.682;2023-04-03T03:15:40;14.13;;;9.77;;
21472;SDS011;10898;48.072;11.682;2023-04-03T03:17:42;14.80;;;10.85;;
21472;SDS011;10898;48.072;11.682;2023-04-03T03:19:44;12.43;;;10.55;;
21472;SDS011;10898;48.072;11.682;2023-04-03T03:23:49;11.32;;;9.15;;
21472;SDS011;10898;48.072;11.682;2023-04-03T03:25:55;12.48;;;10.43;;
21472;SDS011;10898;48.072;11.682;2023-04-03T03:27:57;11.48;;;9.20;;
21472;SDS011;10898;48.072;11.682;2023-04-03T03:29:59;10.77;;;9.52;;
21472;SDS011;10898;48.072;11.682;2023-04-03T03:32:02;11.68;;;9.80;;
21472;SDS011;10898;48.072;11.682;2023-04-03T03:34:04;11.73;;;9.35;;
21472;SDS011;10898;48.072;11.682;2023-04-03T03:36:06;13.98;;;9.13;;
21472;SDS011;10898;48.072;11.682;2023-04-03T03:38:08;10.80;;;9.05;;
21472;SDS011;10898;48.072;11.682;2023-04-03T03:40:11;11.52;;;8.63;;
21472;SDS011;10898;48.072;11.682;2023-04-03T03:42:14;9.60;;;8.25;;
21472;SDS011;10898;48.072;11.682;2023-04-03T03:46:18;7.85;;;7.07;;
21472;SDS011;10898;48.072;11.682;2023-04-03T03:48:21;9.75;;;8.70;;
21472;SDS011;10898;48.072;11.682;2023-04-03T03:52:25;9.85;;;8.00;;
21472;SDS011;10898;48.072;11.682;2023-04-03T03:54:27;9.02;;;7.97;;
21472;SDS011;10898;48.072;11.682;2023-04-03T03:56:30;9.02;;;8.13;;
21472;SDS011;10898;48.072;11.682;2023-04-03T03:58:32;10.75;;;8.10;;
21472;SDS011;10898;48.072;11.682;2023-04-03T04:00:34;9.73;;;7.55;;
21472;SDS011;10898;48.072;11.682;2023-04-03T04:02:36;8.60;;;7.13;;
21472;SDS011;10898;48.072;11.682;2023-04-03T04:04:39;8.93;;;8.00;;
21472;SDS011;10898;48.072;11.682;2023-04-03T04:06:41;8.82;;;7.85;;
21472;SDS011;10898;48.072;11.682;2023-04-03T04:08:43;9.50;;;7.95;;
21472;SDS011;10898;48.072;11.682;2023-04-03T04:10:45;9.57;;;7.93;;
21472;SDS011;10898;48.072;11.682;2023-04-03T04:12:47;8.48;;;7.35;;
21472;SDS011;10898;48.072;11.682;2023-04-03T04:14:52;7.63;;;6.82;;
21472;SDS011;10898;48.072;11.682;2023-04-03T04:16:54;8.65;;;7.30;;
21472;SDS011;10898;48.072;11.682;2023-04-03T04:18:56;9.32;;;7.63;;
21472;SDS011;10898;48.072;11.682;2023-04-03T04:20:58;11.18;;;7.20;;
21472;SDS011;10898;48.072;11.682;2023-04-03T04:23:01;7.93;;;6.57;;
21472;SDS011;10898;48.072;11.682;2023-04-03T04:25:03;10.25;;;7.63;;
21472;SDS011;10898;48.072;11.682;2023-04-03T04:27:05;8.48;;;7.40;;
21472;SDS011;10898;48.072;11.682;2023-04-03T04:29:08;8.25;;;7.45;;
21472;SDS011;10898;48.072;11.682;2023-04-03T04:31:11;7.40;;;6.68;;
21472;SDS011;10898;48.072;11.682;2023-04-03T04:33:13;8.35;;;7.50;;
21472;SDS011;10898;48.072;11.682;2023-04-03T04:37:18;7.72;;;6.63;;
21472;SDS011;10898;48.072;11.682;2023-04-03T04:39:20;7.95;;;7.15;;
21472;SDS011;10898;48.072;11.682;2023-04-03T04:41:22;9.27;;;7.25;;
21472;SDS011;10898;48.072;11.682;2023-04-03T04:43:24;8.27;;;7.40;;
21472;SDS011;10898;48.072;11.682;2023-04-03T04:45:27;9.20;;;6.97;;
21472;SDS011;10898;48.072;11.682;2023-04-03T04:47:29;8.15;;;7.32;;
21472;SDS011;10898;48.072;11.682;2023-04-03T04:49:31;9.82;;;7.03;;
21472;SDS011;10898;48.072;11.682;2023-04-03T04:51:34;7.82;;;7.03;;
21472;SDS011;10898;48.072;11.682;2023-04-03T04:53:52;7.80;;;6.65;;
21472;SDS011;10898;48.072;11.682;2023-04-03T04:55:56;7.85;;;7.07;;
21472;SDS011;10898;48.072;11.682;2023-04-03T04:57:58;10.02;;;8.00;;
21472;SDS011;10898;48.072;11.682;2023-04-03T05:00:00;7.07;;;6.35;;
21472;SDS011;10898;48.072;11.682;2023-04-03T05:02:02;8.00;;;7.15;;
21472;SDS011;10898;48.072;11.682;2023-04-03T05:04:05;8.02;;;7.22;;
21472;SDS011;10898;48.072;11.682;2023-04-03T05:06:07;8.82;;;7.93;;
21472;SDS011;10898;48.072;11.682;2023-04-03T05:08:09;9.23;;;7.05;;
21472;SDS011;10898;48.072;11.682;2023-04-03T05:10:11;8.60;;;7.70;;
21472;SDS011;10898;48.072;11.682;2023-04-03T05:12:13;10.50;;;7.10;;
21472;SDS011;10898;48.072;11.682;2023-04-03T05:14:16;7.63;;;6.80;;
21472;SDS011;10898;48.072;11.682;2023-04-03T05:16:18;7.82;;;6.85;;
21472;SDS011;10898;48.072;11.682;2023-04-03T05:18:20;7.63;;;6.78;;
21472;SDS011;10898;48.072;11.682;2023-04-03T05:20:23;8.75;;;7.25;;
21472;SDS011;10898;48.072;11.682;2023-04-03T05:22:25;7.38;;;6.68;;
21472;SDS011;10898;48.072;11.682;2023-04-03T05:24:27;8.30;;;7.50;;
21472;SDS011;10898;48.072;11.682;2023-04-03T05:26:30;9.38;;;7.53;;
21472;SDS011;10898;48.072;11.682;2023-04-03T05:28:32;8.80;;;7.20;;
21472;SDS011;10898;48.072;11.682;2023-04-03T05:30:34;7.97;;;7.18;;
21472;SDS011;10898;48.072;11.682;2023-04-03T05:32:37;8.65;;;7.70;;
21472;SDS011;10898;48.072;11.682;2023-04-03T05:34:39;9.75;;;8.07;;
21472;SDS011;10898;48.072;11.682;2023-04-03T05:36:41;9.25;;;7.90;;
21472;SDS011;10898;48.072;11.682;2023-04-03T05:40:46;11.02;;;8.18;;
21472;SDS011;10898;48.072;11.682;2023-04-03T05:42:48;11.18;;;8.43;;
21472;SDS011;10898;48.072;11.682;2023-04-03T05:44:51;10.73;;;8.30;;
21472;SDS011;10898;48.072;11.682;2023-04-03T05:46:53;9.48;;;7.82;;
21472;SDS011;10898;48.072;11.682;2023-04-03T05:48:55;9.90;;;7.90;;
21472;SDS011;10898;48.072;11.682;2023-04-03T05:50:57;8.77;;;7.28;;
21472;SDS011;10898;48.072;11.682;2023-04-03T05:53:00;7.95;;;6.70;;
21472;SDS011;10898;48.072;11.682;2023-04-03T05:55:04;8.55;;;7.28;;
21472;SDS011;10898;48.072;11.682;2023-04-03T05:57:06;10.02;;;7.60;;
21472;SDS011;10898;48.072;11.682;2023-04-03T05:59:08;9.52;;;8.43;;
21472;SDS011;10898;48.072;11.682;2023-04-03T06:01:11;7.90;;;7.18;;
21472;SDS011;10898;48.072;11.682;2023-04-03T06:03:13;8.80;;;7.03;;
21472;SDS011;10898;48.072;11.682;2023-04-03T06:05:15;7.03;;;6.32;;
21472;SDS011;10898;48.072;11.682;2023-04-03T06:07:19;8.50;;;6.78;;
21472;SDS011;10898;48.072;11.682;2023-04-03T06:09:23;12.23;;;7.38;;
21472;SDS011;10898;48.072;11.682;2023-04-03T06:11:26;8.15;;;6.97;;
21472;SDS011;10898;48.072;11.682;2023-04-03T06:15:30;7.20;;;6.00;;
21472;SDS011;10898;48.072;11.682;2023-04-03T06:17:32;8.18;;;7.00;;
21472;SDS011;10898;48.072;11.682;2023-04-03T06:19:35;8.02;;;7.20;;
21472;SDS011;10898;48.072;11.682;2023-04-03T06:21:38;8.00;;;6.60;;
21472;SDS011;10898;48.072;11.682;2023-04-03T06:23:40;9.50;;;7.13;;
21472;SDS011;10898;48.072;11.682;2023-04-03T06:25:43;9.35;;;6.75;;
21472;SDS011;10898;48.072;11.682;2023-04-03T06:27:45;8.27;;;6.30;;
21472;SDS011;10898;48.072;11.682;2023-04-03T06:29:47;7.85;;;7.05;;
21472;SDS011;10898;48.072;11.682;2023-04-03T06:31:50;7.22;;;6.25;;
21472;SDS011;10898;48.072;11.682;2023-04-03T06:33:53;9.02;;;7.07;;
21472;SDS011;10898;48.072;11.682;2023-04-03T06:35:56;9.68;;;6.68;;
21472;SDS011;10898;48.072;11.682;2023-04-03T06:37:59;7.95;;;6.75;;
21472;SDS011;10898;48.072;11.682;2023-04-03T06:40:01;7.13;;;6.43;;
21472;SDS011;10898;48.072;11.682;2023-04-03T06:42:04;6.93;;;6.22;;
21472;SDS011;10898;48.072;11.682;2023-04-03T06:46:18;8.45;;;6.22;;
21472;SDS011;10898;48.072;11.682;2023-04-03T06:48:21;6.85;;;5.97;;
21472;SDS011;10898;48.072;11.682;2023-04-03T06:50:23;8.40;;;7.40;;
21472;SDS011;10898;48.072;11.682;2023-04-03T06:52:25;8.15;;;6.60;;
21472;SDS011;10898;48.072;11.682;2023-04-03T06:54:28;7.97;;;6.35;;
21472;SDS011;10898;48.072;11.682;2023-04-03T06:56:30;7.15;;;6.10;;
21472;SDS011;10898;48.072;11.682;2023-04-03T06:58:32;8.48;;;6.25;;
21472;SDS011;10898;48.072;11.682;2023-04-03T07:00:35;7.28;;;6.32;;
21472;SDS011;10898;48.072;11.682;2023-04-03T07:02:37;8.18;;;6.82;;
21472;SDS011;10898;48.072;11.682;2023-04-03T07:04:39;6.82;;;6.20;;
21472;SDS011;10898;48.072;11.682;2023-04-03T07:06:42;6.65;;;6.05;;
21472;SDS011;10898;48.072;11.682;2023-04-03T07:08:44;7.32;;;6.07;;
21472;SDS011;10898;48.072;11.682;2023-04-03T07:10:47;8.30;;;6.38;;
21472;SDS011;10898;48.072;11.682;2023-04-03T07:12:49;8.23;;;6.68;;
21472;SDS011;10898;48.072;11.682;2023-04-03T07:14:52;9.05;;;5.97;;
21472;SDS011;10898;48.072;11.682;2023-04-03T07:16:54;7.65;;;6.55;;
21472;SDS011;10898;48.072;11.682;2023-04-03T07:18:57;7.78;;;6.00;;
21472;SDS011;10898;48.072;11.682;2023-04-03T07:20:59;6.90;;;6.20;;
21472;SDS011;10898;48.072;11.682;2023-04-03T07:23:01;6.97;;;6.28;;
21472;SDS011;10898;48.072;11.682;2023-04-03T07:27:08;7.32;;;6.07;;
21472;SDS011;10898;48.072;11.682;2023-04-03T07:29:10;6.78;;;6.00;;
21472;SDS011;10898;48.072;11.682;2023-04-03T07:31:13;8.15;;;6.43;;
21472;SDS011;10898;48.072;11.682;2023-04-03T07:33:16;7.18;;;6.47;;
21472;SDS011;10898;48.072;11.682;2023-04-03T07:35:19;8.93;;;6.13;;
21472;SDS011;10898;48.072;11.682;2023-04-03T07:37:21;6.70;;;6.00;;
21472;SDS011;10898;48.072;11.682;2023-04-03T07:39:23;9.38;;;6.55;;
21472;SDS011;10898;48.072;11.682;2023-04-03T07:41:25;9.25;;;6.53;;
21472;SDS011;10898;48.072;11.682;2023-04-03T07:43:28;7.65;;;6.82;;
21472;SDS011;10898;48.072;11.682;2023-04-03T07:45:30;7.22;;;6.40;;
21472;SDS011;10898;48.072;11.682;2023-04-03T07:49:34;6.20;;;5.63;;
21472;SDS011;10898;48.072;11.682;2023-04-03T07:51:40;6.70;;;6.00;;
21472;SDS011;10898;48.072;11.682;2023-04-03T07:53:42;7.93;;;6.38;;
21472;SDS011;10898;48.072;11.682;2023-04-03T07:55:48;7.75;;;6.53;;
21472;SDS011;10898;48.072;11.682;2023-04-03T07:57:52;8.75;;;6.72;;
21472;SDS011;10898;48.072;11.682;2023-04-03T07:59:54;6.88;;;6.18;;
21472;SDS011;10898;48.072;11.682;2023-04-03T08:01:57;7.80;;;6.43;;
21472;SDS011;10898;48.072;11.682;2023-04-03T08:03:59;9.13;;;6.40;;
21472;SDS011;10898;48.072;11.682;2023-04-03T08:06:02;7.63;;;6.22;;
21472;SDS011;10898;48.072;11.682;2023-04-03T08:08:07;8.65;;;6.60;;
21472;SDS011;10898;48.072;11.682;2023-04-03T08:10:10;6.82;;;6.13;;
21472;SDS011;10898;48.072;11.682;2023-04-03T08:12:12;7.97;;;6.85;;
21472;SDS011;10898;48.072;11.682;2023-04-03T08:14:15;9.27;;;6.90;;
21472;SDS011;10898;48.072;11.682;2023-04-03T08:16:20;8.77;;;6.50;;
21472;SDS011;10898;48.072;11.682;2023-04-03T08:18:23;7.38;;;6.50;;
21472;SDS011;10898;48.072;11.682;2023-04-03T08:20:27;7.43;;;6.00;;
21472;SDS011;10898;48.072;11.682;2023-04-03T08:24:32;9.13;;;6.40;;
21472;SDS011;10898;48.072;11.682;2023-04-03T08:26:36;10.27;;;6.50;;
21472;SDS011;10898;48.072;11.682;2023-04-03T08:28:38;8.45;;;6.30;;
21472;SDS011;10898;48.072;11.682;2023-04-03T08:30:41;8.02;;;6.38;;
21472;SDS011;10898;48.072;11.682;2023-04-03T08:32:44;7.43;;;6.65;;
21472;SDS011;10898;48.072;11.682;2023-04-03T08:34:47;8.07;;;6.60;;
21472;SDS011;10898;48.072;11.682;2023-04-03T08:36:49;7.85;;;6.38;;
21472;SDS011;10898;48.072;11.682;2023-04-03T08:38:51;8.80;;;6.70;;
21472;SDS011;10898;48.072;11.682;2023-04-03T08:41:02;7.07;;;6.38;;
21472;SDS011;10898;48.072;11.682;2023-04-03T08:46:13;8.20;;;6.57;;
21472;SDS011;10898;48.072;11.682;2023-04-03T08:47:58;6.82;;;6.22;;
21472;SDS011;10898;48.072;11.682;2023-04-03T08:50:04;7.95;;;6.10;;
21472;SDS011;10898;48.072;11.682;2023-04-03T08:52:11;7.88;;;5.90;;
21472;SDS011;10898;48.072;11.682;2023-04-03T08:54:35;7.60;;;6.40;;
21472;SDS011;10898;48.072;11.682;2023-04-03T08:56:39;6.40;;;5.80;;
21472;SDS011;10898;48.072;11.682;2023-04-03T08:59:17;6.22;;;5.63;;
21472;SDS011;10898;48.072;11.682;2023-04-03T09:01:21;8.23;;;6.13;;
21472;SDS011;10898;48.072;11.682;2023-04-03T09:03:25;9.02;;;6.55;;
21472;SDS011;10898;48.072;11.682;2023-04-03T09:07:39;8.60;;;6.32;;
21472;SDS011;10898;48.072;11.682;2023-04-03T09:09:43;9.70;;;6.40;;
21472;SDS011;10898;48.072;11.682;2023-04-03T09:14:15;9.57;;;6.03;;
21472;SDS011;10898;48.072;11.682;2023-04-03T09:16:27;6.82;;;6.00;;
21472;SDS011;10898;48.072;11.682;2023-04-03T09:18:30;7.85;;;6.38;;
21472;SDS011;10898;48.072;11.682;2023-04-03T09:21:37;6.30;;;5.70;;
21472;SDS011;10898;48.072;11.682;2023-04-03T09:23:26;7.13;;;5.72;;
21472;SDS011;10898;48.072;11.682;2023-04-03T09:25:34;7.00;;;5.80;;
21472;SDS011;10898;48.072;11.682;2023-04-03T09:27:39;7.25;;;5.40;;
21472;SDS011;10898;48.072;11.682;2023-04-03T09:29:42;7.10;;;6.00;;
21472;SDS011;10898;48.072;11.682;2023-04-03T09:31:47;6.93;;;5.90;;
21472;SDS011;10898;48.072;11.682;2023-04-03T09:33:50;8.02;;;6.28;;
21472;SDS011;10898;48.072;11.682;2023-04-03T09:35:54;7.68;;;6.40;;
21472;SDS011;10898;48.072;11.682;2023-04-03T09:40:00;5.82;;;5.25;;
21472;SDS011;10898;48.072;11.682;2023-04-03T09:44:17;6.00;;;5.50;;
21472;SDS011;10898;48.072;11.682;2023-04-03T09:46:29;7.32;;;6.20;;
21472;SDS011;10898;48.072;11.682;2023-04-03T09:48:32;7.15;;;5.88;;
21472;SDS011;10898;48.072;11.682;2023-04-03T09:50:35;6.47;;;5.82;;
21472;SDS011;10898;48.072;11.682;2023-04-03T09:52:42;6.40;;;5.80;;
21472;SDS011;10898;48.072;11.682;2023-04-03T09:54:45;6.90;;;6.20;;
21472;SDS011;10898;48.072;11.682;2023-04-03T09:56:50;6.82;;;6.10;;
21472;SDS011;10898;48.072;11.682;2023-04-03T10:01:01;8.18;;;6.70;;
21472;SDS011;10898;48.072;11.682;2023-04-03T10:07:34;6.78;;;6.13;;
21472;SDS011;10898;48.072;11.682;2023-04-03T10:09:37;7.25;;;6.43;;
21472;SDS011;10898;48.072;11.682;2023-04-03T10:14:10;6.97;;;6.15;;
21472;SDS011;10898;48.072;11.682;2023-04-03T10:16:19;7.47;;;5.55;;
21472;SDS011;10898;48.072;11.682;2023-04-03T10:18:37;7.65;;;6.10;;
21472;SDS011;10898;48.072;11.682;2023-04-03T10:20:44;7.45;;;6.18;;
21472;SDS011;10898;48.072;11.682;2023-04-03T10:27:17;6.93;;;6.25;;
21472;SDS011;10898;48.072;11.682;2023-04-03T10:29:27;9.75;;;6.45;;
21472;SDS011;10898;48.072;11.682;2023-04-03T10:38:03;6.97;;;6.25;;
21472;SDS011;10898;48.072;11.682;2023-04-03T10:42:35;6.50;;;5.93;;
21472;SDS011;10898;48.072;11.682;2023-04-03T10:45:01;6.20;;;5.65;;
21472;SDS011;10898;48.072;11.682;2023-04-03T10:48:06;6.50;;;5.90;;
21472;SDS011;10898;48.072;11.682;2023-04-03T10:49:42;5.80;;;5.30;;
21472;SDS011;10898;48.072;11.682;2023-04-03T10:52:07;6.93;;;6.22;;
21472;SDS011;10898;48.072;11.682;2023-04-03T10:54:24;7.18;;;5.68;;
21472;SDS011;10898;48.072;11.682;2023-04-03T10:56:31;5.90;;;5.28;;
21472;SDS011;10898;48.072;11.682;2023-04-03T10:58:40;8.10;;;6.70;;
21472;SDS011;10898;48.072;11.682;2023-04-03T11:00:45;7.82;;;5.82;;
21472;SDS011;10898;48.072;11.682;2023-04-03T11:02:49;6.40;;;5.75;;
21472;SDS011;10898;48.072;11.682;2023-04-03T11:04:54;6.15;;;5.32;;
21472;SDS011;10898;48.072;11.682;2023-04-03T11:07:03;6.90;;;5.90;;
21472;SDS011;10898;48.072;11.682;2023-04-03T11:11:22;6.35;;;5.30;;
21472;SDS011;10898;48.072;11.682;2023-04-03T11:13:34;6.38;;;5.78;;
21472;SDS011;10898;48.072;11.682;2023-04-03T11:15:37;6.53;;;5.93;;
21472;SDS011;10898;48.072;11.682;2023-04-03T11:17:41;5.95;;;5.35;;
21472;SDS011;10898;48.072;11.682;2023-04-03T11:20:08;6.75;;;5.57;;
21472;SDS011;10898;48.072;11.682;2023-04-03T11:24:16;5.85;;;5.35;;
21472;SDS011;10898;48.072;11.682;2023-04-03T11:26:20;5.97;;;4.55;;
21472;SDS011;10898;48.072;11.682;2023-04-03T11:28:24;5.50;;;4.90;;
21472;SDS011;10898;48.072;11.682;2023-04-03T11:30:28;6.82;;;5.20;;
21472;SDS011;10898;48.072;11.682;2023-04-03T11:32:41;5.97;;;5.00;;
21472;SDS011;10898;48.072;11.682;2023-04-03T11:34:48;6.93;;;5.07;;
21472;SDS011;10898;48.072;11.682;2023-04-03T11:36:55;5.50;;;4.47;;
21472;SDS011;10898;48.072;11.682;2023-04-03T11:39:04;5.88;;;4.88;;
21472;SDS011;10898;48.072;11.682;2023-04-03T11:41:09;6.20;;;5.10;;
21472;SDS011;10898;48.072;11.682;2023-04-03T11:47:44;6.95;;;4.93;;
21472;SDS011;10898;48.072;11.682;2023-04-03T11:49:51;9.07;;;5.25;;
21472;SDS011;10898;48.072;11.682;2023-04-03T11:51:54;5.40;;;4.85;;
21472;SDS011;10898;48.072;11.682;2023-04-03T11:54:34;6.00;;;4.93;;
21472;SDS011;10898;48.072;11.682;2023-04-03T11:58:26;4.85;;;4.00;;
21472;SDS011;10898;48.072;11.682;2023-04-03T12:02:47;5.68;;;4.40;;
21472;SDS011;10898;48.072;11.682;2023-04-03T12:07:18;4.00;;;3.63;;
21472;SDS011;10898;48.072;11.682;2023-04-03T12:09:56;3.60;;;3.30;;
21472;SDS011;10898;48.072;11.682;2023-04-03T12:11:49;4.85;;;4.28;;
21472;SDS011;10898;48.072;11.682;2023-04-03T12:15:58;6.90;;;4.13;;
21472;SDS011;10898;48.072;11.682;2023-04-03T12:18:30;5.28;;;4.20;;
21472;SDS011;10898;48.072;11.682;2023-04-03T12:23:06;5.32;;;3.95;;
21472;SDS011;10898;48.072;11.682;2023-04-03T12:25:40;6.25;;;4.00;;
21472;SDS011;10898;48.072;11.682;2023-04-03T12:27:32;3.40;;;3.10;;
21472;SDS011;10898;48.072;11.682;2023-04-03T12:29:39;4.10;;;3.70;;
21472;SDS011;10898;48.072;11.682;2023-04-03T12:34:18;6.78;;;6.15;;
21472;SDS011;10898;48.072;11.682;2023-04-03T12:37:03;6.45;;;5.38;;
21472;SDS011;10898;48.072;11.682;2023-04-03T12:39:03;11.20;;;8.55;;
21472;SDS011;10898;48.072;11.682;2023-04-03T12:41:23;7.95;;;7.22;;
21472;SDS011;10898;48.072;11.682;2023-04-03T12:45:49;5.38;;;3.45;;
21472;SDS011;10898;48.072;11.682;2023-04-03T12:47:53;5.32;;;3.50;;
21472;SDS011;10898;48.072;11.682;2023-04-03T12:49:56;5.15;;;3.55;;
21472;SDS011;10898;48.072;11.682;2023-04-03T12:51:59;4.40;;;3.83;;
21472;SDS011;10898;48.072;11.682;2023-04-03T12:54:03;5.00;;;4.45;;
21472;SDS011;10898;48.072;11.682;2023-04-03T12:56:22;3.78;;;3.30;;
21472;SDS011;10898;48.072;11.682;2023-04-03T12:58:25;3.70;;;3.38;;
21472;SDS011;10898;48.072;11.682;2023-04-03T13:00:29;4.03;;;3.25;;
21472;SDS011;10898;48.072;11.682;2023-04-03T13:02:34;3.47;;;3.17;;
21472;SDS011;10898;48.072;11.682;2023-04-03T13:04:37;4.53;;;3.05;;
21472;SDS011;10898;48.072;11.682;2023-04-03T13:06:41;4.30;;;3.45;;
21472;SDS011;10898;48.072;11.682;2023-04-03T13:10:56;4.88;;;4.38;;
21472;SDS011;10898;48.072;11.682;2023-04-03T13:13:06;6.72;;;3.40;;
21472;SDS011;10898;48.072;11.682;2023-04-03T13:15:14;7.13;;;3.50;;
21472;SDS011;10898;48.072;11.682;2023-04-03T13:17:16;4.25;;;3.30;;
21472;SDS011;10898;48.072;11.682;2023-04-03T13:19:18;3.45;;;3.08;;
21472;SDS011;10898;48.072;11.682;2023-04-03T13:21:38;4.20;;;3.72;;
21472;SDS011;10898;48.072;11.682;2023-04-03T13:23:43;5.28;;;3.30;;
21472;SDS011;10898;48.072;11.682;2023-04-03T13:25:47;4.10;;;3.08;;
21472;SDS011;10898;48.072;11.682;2023-04-03T13:27:50;4.18;;;3.65;;
21472;SDS011;10898;48.072;11.682;2023-04-03T13:30:03;3.40;;;2.88;;
21472;SDS011;10898;48.072;11.682;2023-04-03T13:32:06;4.32;;;2.50;;
21472;SDS011;10898;48.072;11.682;2023-04-03T13:36:22;4.75;;;2.92;;
21472;SDS011;10898;48.072;11.682;2023-04-03T13:38:26;5.20;;;2.45;;
21472;SDS011;10898;48.072;11.682;2023-04-03T13:40:32;2.85;;;2.55;;
21472;SDS011;10898;48.072;11.682;2023-04-03T13:42:48;3.33;;;1.95;;
21472;SDS011;10898;48.072;11.682;2023-04-03T13:47:22;3.03;;;2.72;;
21472;SDS011;10898;48.072;11.682;2023-04-03T13:49:37;3.25;;;2.78;;
21472;SDS011;10898;48.072;11.682;2023-04-03T13:51:40;4.05;;;2.28;;
21472;SDS011;10898;48.072;11.682;2023-04-03T13:58:01;5.30;;;2.70;;
21472;SDS011;10898;48.072;11.682;2023-04-03T14:02:38;4.60;;;2.88;;
21472;SDS011;10898;48.072;11.682;2023-04-03T14:06:46;6.65;;;4.47;;